American Falls, ID

11:59 PM MDT on August 31, 2016 (GMT -0600)
Pocatello Regional | | Change Station
Active Advisory: Fire Weather Watch Active Notice: Record Report

Elev 4478 ft 42.92 °N, 112.57 °W | Updated 6 minutes ago

Clear
Clear
74 °F
Feels Like 74 °F
N
8
Wind Variable Wind from South

Today
High -- | Low -- °F
--% Chance of Precip.
Yesterday
High -- | Low -- °F
Precip. -- in
Pressure 29.81 in
Visibility 10.0 miles
Clouds Clear
Dew Point 35 °F
Humidity 24%
Rainfall 0.00 in
Snow Depth Not available.
6:56 AM 8:06 PM
Waning Crescent, 0% visible
METAR KPIH 010553Z AUTO 17007KT 10SM CLR 23/02 A2999 RMK AO2 SLP092 T02330017 10328 20222 53004
Pressure 29.81 in
Visibility 10.0 miles
Clouds Clear
Dew Point 35 °F
Humidity 24%
Rainfall 0.00 in
Snow Depth Not available.
6:56 AM 8:06 PM
Waning Crescent, 0% visible
METAR KPIH 010553Z AUTO 17007KT 10SM CLR 23/02 A2999 RMK AO2 SLP092 T02330017 10328 20222 53004

10-Day Weather Forecast

Almanac

Astronomy

Aug. 31, 2016 Rise Set
Actual Time
Civil Twilight
Nautical Twilight
Astronomical Twilight
Moon
Length of Visible Light
Length of Day
Tomorrow will be .
, % of the Moon is Illuminated

Today's Extremes

State Highs State Lows

Community

WunderPhotos

Upload Photos

1,936,313 photos uploaded!

WunderBlog® & News

Nearby

Air Quality

  Air Quality AQ Index Pollutant
Not available.

Snow Depth

Station Depth Elevation

Earthquake Activity

City Distance Mag. Time & Date
Minimum magnitude displayed is 2.5.

Coastal Water Temperatures

Place Temperature

Stations

Nearby Weather Stations

Station Location Temp. Windchill Dew Point Humidity Wind Precip. Elev Updated Type
                   

Watches & Warnings

Fire Weather Watch
Issued: 9:57 PM MDT Aug. 31, 2016 – National Weather Service

... Fire Weather Watch remains in effect from Thursday afternoon
through Thursday evening for gusty winds and low humidity for
fire weather zones 413 and 427...

... Red flag warning will expire at 10 PM MDT this evening for
gusty winds and low humidity for fire weather zones 413 and 427...

* affected area... fire weather zones 413 and 427.

* Wind... gusts increasing to around 30 mph Thursday afternoon
with stronger outflow winds in thunderstorms.

* Humidity... 10 to 15 percent.

* Thunderstorms... isolated thunderstorms overnight and into
Thursday.

* Impacts... any fires that develop will likely spread rapidly.
Outdoor burning is not recommended.

Precautionary/preparedness actions...

A Fire Weather Watch means that critical fire weather conditions
are forecast to occur. Listen for later forecasts and possible red
flag warnings.